createdAt,value
2018-09-05T00:00:07.387Z,25.87
2018-09-05T00:02:35.941Z,25.63
2018-09-05T00:05:04.779Z,26.77
2018-09-05T00:07:33.988Z,24.50
2018-09-05T00:10:02.696Z,25.77
2018-09-05T00:12:31.441Z,27.03
2018-09-05T00:15:00.167Z,26.80
2018-09-05T00:17:28.653Z,25.57
2018-09-05T00:19:57.201Z,26.57
2018-09-05T00:22:25.795Z,27.77
2018-09-05T00:24:54.290Z,25.60
2018-09-05T00:27:22.820Z,26.47
2018-09-05T00:29:51.358Z,25.67
2018-09-05T00:32:19.947Z,26.10
2018-09-05T00:34:48.479Z,28.30
2018-09-05T00:37:17.033Z,28.00
2018-09-05T00:39:45.647Z,26.00
2018-09-05T00:42:14.126Z,26.20
2018-09-05T00:44:42.711Z,26.67
2018-09-05T00:47:11.215Z,28.57
2018-09-05T00:49:39.678Z,29.97
2018-09-05T00:52:08.146Z,29.23
2018-09-05T00:54:36.639Z,30.30
2018-09-05T00:57:05.140Z,30.53
2018-09-05T00:59:33.632Z,29.40
2018-09-05T01:02:02.400Z,29.63
2018-09-05T01:04:30.935Z,30.10
2018-09-05T01:06:59.804Z,29.50
2018-09-05T01:09:28.283Z,30.40
2018-09-05T01:11:56.775Z,30.37
2018-09-05T01:14:25.296Z,29.47
2018-09-05T01:16:53.838Z,29.97
2018-09-05T01:19:22.346Z,29.07
2018-09-05T01:21:51.670Z,28.87
2018-09-05T01:24:20.188Z,30.73
2018-09-05T01:26:49.750Z,30.13
2018-09-05T01:29:18.295Z,31.83
2018-09-05T01:31:46.810Z,32.17
2018-09-05T01:34:15.306Z,31.37
2018-09-05T01:36:43.791Z,30.00
2018-09-05T01:39:12.327Z,31.03
2018-09-05T01:41:40.853Z,30.03
2018-09-05T01:44:09.647Z,31.93
2018-09-05T01:46:38.497Z,32.17
2018-09-05T01:49:07.010Z,32.10
2018-09-05T01:51:35.527Z,31.97
2018-09-05T01:54:04.075Z,32.60
2018-09-05T01:56:33.214Z,32.23
2018-09-05T01:59:01.775Z,32.93
2018-09-05T02:01:30.279Z,31.07
2018-09-05T02:03:59.139Z,30.90
2018-09-05T02:06:27.714Z,31.80
2018-09-05T02:08:56.208Z,31.70
2018-09-05T02:11:24.687Z,31.93
2018-09-05T02:13:54.030Z,33.07
2018-09-05T02:16:22.587Z,32.60
2018-09-05T02:18:51.639Z,32.10
2018-09-05T02:21:20.170Z,33.47
2018-09-05T02:23:48.779Z,33.13
2018-09-05T02:26:17.282Z,31.80
2018-09-05T02:28:45.786Z,30.43
2018-09-05T02:31:14.334Z,33.47
2018-09-05T02:33:42.892Z,32.70
2018-09-05T02:36:11.422Z,34.30
2018-09-05T02:38:39.988Z,33.33
2018-09-05T02:41:09.288Z,32.57
2018-09-05T02:43:43.415Z,34.27
2018-09-05T02:46:11.978Z,34.10
2018-09-05T02:48:40.629Z,32.77
2018-09-05T02:51:09.185Z,33.17
2018-09-05T02:53:38.021Z,34.63
2018-09-05T02:56:06.530Z,35.17
2018-09-05T02:58:35.553Z,34.33
2018-09-05T03:01:04.104Z,34.13
2018-09-05T03:03:32.925Z,32.43
2018-09-05T03:06:01.427Z,33.87
2018-09-05T03:08:29.998Z,35.20
2018-09-05T03:10:58.546Z,33.77
2018-09-05T03:13:27.157Z,34.47
2018-09-05T03:15:55.786Z,33.03
2018-09-05T03:18:24.402Z,34.47
2018-09-05T03:20:52.915Z,34.13
2018-09-05T03:23:21.579Z,31.37
2018-09-05T03:25:50.031Z,32.53
2018-09-05T03:28:18.870Z,33.93
2018-09-05T03:30:47.355Z,33.00
2018-09-05T03:33:15.864Z,33.37
2018-09-05T03:35:44.574Z,32.53
2018-09-05T03:38:13.034Z,33.43
2018-09-05T03:40:41.565Z,32.67
2018-09-05T03:43:10.466Z,32.27
2018-09-05T03:45:39.113Z,32.40
2018-09-05T03:48:07.699Z,32.00
2018-09-05T03:50:36.194Z,32.47
2018-09-05T03:53:04.770Z,33.33
2018-09-05T03:55:33.379Z,32.97
2018-09-05T03:58:02.813Z,32.63
2018-09-05T04:00:32.750Z,32.23
2018-09-05T04:03:02.152Z,34.13
2018-09-05T04:05:30.802Z,34.20
2018-09-05T04:07:59.660Z,32.43
2018-09-05T04:10:28.212Z,34.10
2018-09-05T04:12:56.698Z,32.83
2018-09-05T04:15:25.273Z,32.07
2018-09-05T04:17:53.792Z,32.30
2018-09-05T04:20:22.315Z,33.20
2018-09-05T04:22:51.543Z,34.20
2018-09-05T04:25:20.027Z,32.80
2018-09-05T04:27:48.599Z,31.80
2018-09-05T04:30:17.433Z,32.77
2018-09-05T04:32:45.932Z,33.03
2018-09-05T04:35:14.461Z,33.27
2018-09-05T04:37:42.976Z,33.43
2018-09-05T04:40:11.486Z,33.13
2018-09-05T04:42:39.997Z,33.70
2018-09-05T04:45:08.537Z,32.83
2018-09-05T04:47:37.303Z,31.63
2018-09-05T04:50:06.313Z,31.80
2018-09-05T04:52:34.810Z,32.57
2018-09-05T04:55:03.377Z,32.33
2018-09-05T04:57:31.835Z,32.07
2018-09-05T05:00:00.360Z,32.30
2018-09-05T05:02:28.846Z,32.17
2018-09-05T05:04:57.551Z,34.77
2018-09-05T05:07:26.033Z,32.73
2018-09-05T05:09:54.539Z,32.10
2018-09-05T05:12:23.394Z,33.30
2018-09-05T05:14:52.320Z,30.77
2018-09-05T05:17:20.864Z,32.13
2018-09-05T05:19:49.385Z,30.57
2018-09-05T05:22:17.862Z,33.60
2018-09-05T05:24:46.272Z,31.57
2018-09-05T05:27:15.326Z,32.77
2018-09-05T05:29:43.844Z,32.87
2018-09-05T05:32:12.281Z,35.87
2018-09-05T05:34:40.812Z,35.10
2018-09-05T05:37:09.669Z,35.03
2018-09-05T05:39:38.167Z,37.30
2018-09-05T05:42:06.751Z,34.87
2018-09-05T05:44:35.728Z,36.53
2018-09-05T05:47:04.425Z,35.07
2018-09-05T05:49:33.017Z,35.83
2018-09-05T05:52:01.490Z,34.77
2018-09-05T05:54:30.043Z,34.80
2018-09-05T05:56:58.499Z,33.77
2018-09-05T05:59:27.043Z,35.17
2018-09-05T06:01:55.660Z,33.63
2018-09-05T06:04:24.141Z,31.10
2018-09-05T06:06:53.395Z,33.90
2018-09-05T06:09:21.978Z,32.50
2018-09-05T06:11:50.531Z,33.17
2018-09-05T06:14:19.076Z,32.00
2018-09-05T06:16:47.605Z,31.37
2018-09-05T06:19:16.104Z,33.77
2018-09-05T06:21:44.621Z,35.17
2018-09-05T06:24:13.894Z,33.83
2018-09-05T06:26:42.460Z,33.97
2018-09-05T06:29:11.431Z,34.60
2018-09-05T06:31:39.919Z,33.60
2018-09-05T06:34:08.398Z,35.70
2018-09-05T06:36:36.928Z,35.23
2018-09-05T06:39:08.995Z,36.10
2018-09-05T06:41:37.936Z,37.47
2018-09-05T06:44:06.618Z,34.57
2018-09-05T06:46:35.169Z,35.60
2018-09-05T06:49:03.763Z,36.10
2018-09-05T06:51:32.364Z,34.97
2018-09-05T06:54:00.862Z,35.63
2018-09-05T06:56:29.308Z,34.33
2018-09-05T06:58:57.814Z,33.63
2018-09-05T07:01:26.428Z,34.03
2018-09-05T07:03:54.988Z,34.60
2018-09-05T07:06:23.519Z,34.57
2018-09-05T07:08:52.110Z,32.67
2018-09-05T07:11:20.649Z,32.53
2018-09-05T07:13:49.258Z,32.80
2018-09-05T07:16:18.583Z,33.17
2018-09-05T07:18:47.096Z,33.73
2018-09-05T07:21:15.773Z,33.43
2018-09-05T07:23:44.244Z,36.03
2018-09-05T07:26:12.766Z,32.93
2018-09-05T07:28:41.243Z,36.40
2018-09-05T07:31:09.835Z,34.10
2018-09-05T07:33:39.105Z,35.23
2018-09-05T07:36:07.663Z,33.73
2018-09-05T07:38:36.996Z,36.57
2018-09-05T07:41:05.807Z,32.13
2018-09-05T07:43:34.461Z,34.53
2018-09-05T07:46:02.908Z,33.60
2018-09-05T07:48:31.560Z,31.47
2018-09-05T07:51:00.228Z,33.10
2018-09-05T07:53:28.739Z,31.53
2018-09-05T07:55:57.241Z,30.27
2018-09-05T07:58:25.849Z,32.37
2018-09-05T08:03:52.868Z,31.20
2018-09-05T08:06:22.836Z,29.57
2018-09-05T08:08:52.011Z,28.47
2018-09-05T08:11:22.477Z,29.30
2018-09-05T08:13:52.472Z,29.33
2018-09-05T08:16:22.105Z,26.67
2018-09-05T08:18:51.537Z,28.57
2018-09-05T08:21:20.941Z,26.23
2018-09-05T08:23:50.668Z,26.37
2018-09-05T08:26:20.691Z,24.80
2018-09-05T08:28:51.661Z,25.50
2018-09-05T08:31:20.658Z,24.07
2018-09-05T08:33:50.344Z,22.37
2018-09-05T08:36:19.895Z,22.57
2018-09-05T08:38:48.833Z,21.80
2018-09-05T08:41:20.779Z,20.80
2018-09-05T08:43:50.078Z,20.10
2018-09-05T08:46:19.541Z,20.40
2018-09-05T08:48:49.255Z,21.60
2018-09-05T08:51:20.161Z,20.47
2018-09-05T08:53:50.682Z,20.60
2018-09-05T08:56:21.808Z,21.23
2018-09-05T08:58:52.103Z,20.93
2018-09-05T09:01:21.676Z,20.37
2018-09-05T09:03:52.045Z,21.10
2018-09-05T09:06:21.744Z,20.70
2018-09-05T09:08:50.769Z,20.40
2018-09-05T09:11:20.232Z,20.70
2018-09-05T09:13:49.504Z,19.23
2018-09-05T09:16:18.845Z,19.33
2018-09-05T09:18:49.147Z,19.67
2018-09-05T09:21:20.132Z,18.63
2018-09-05T09:23:50.291Z,17.63
2018-09-05T09:26:20.065Z,17.40
2018-09-05T09:28:49.496Z,17.80
2018-09-05T09:31:19.792Z,17.20
2018-09-05T09:33:49.241Z,17.00
2018-09-05T09:36:19.845Z,15.70
2018-09-05T09:38:49.334Z,16.10
2018-09-05T09:41:20.618Z,15.30
2018-09-05T09:45:02.760Z,22.77
2018-09-05T09:47:32.199Z,17.63
2018-09-05T09:50:02.215Z,17.80
2018-09-05T09:52:31.231Z,17.43
2018-09-05T09:55:00.455Z,17.00
2018-09-05T09:57:29.459Z,17.00
2018-09-05T09:59:58.550Z,15.90
2018-09-05T10:02:32.697Z,17.40
2018-09-05T10:05:08.361Z,16.30
2018-09-05T10:07:43.874Z,15.10
2018-09-05T10:10:18.696Z,15.40
2018-09-05T10:12:52.090Z,14.80
2018-09-05T10:15:26.821Z,14.90
2018-09-05T10:18:00.974Z,15.63
2018-09-05T10:20:30.287Z,15.67
2018-09-05T10:22:59.344Z,13.90
2018-09-05T10:25:28.450Z,16.07
2018-09-05T10:27:57.662Z,14.87
2018-09-05T10:30:27.076Z,15.53
2018-09-05T10:32:56.487Z,15.23
2018-09-05T10:35:28.044Z,15.47
2018-09-05T10:37:57.559Z,14.70
2018-09-05T10:40:28.161Z,14.90
2018-09-05T10:42:57.416Z,14.63
2018-09-05T10:45:26.623Z,13.67
2018-09-05T10:47:56.876Z,14.93
2018-09-05T10:50:26.424Z,14.40
2018-09-05T10:52:55.673Z,14.30
2018-09-05T10:55:24.864Z,14.20
2018-09-05T10:57:55.018Z,14.17
2018-09-05T11:00:24.286Z,14.13
2018-09-05T11:02:55.314Z,12.63
2018-09-05T11:05:24.912Z,13.47
2018-09-05T11:07:54.075Z,12.40
2018-09-05T11:10:24.005Z,12.70
2018-09-05T11:12:59.747Z,11.97
2018-09-05T11:15:28.907Z,12.77
2018-09-05T11:17:59.557Z,12.20
2018-09-05T11:20:28.735Z,13.10
2018-09-05T11:22:57.876Z,11.67
2018-09-05T11:25:27.154Z,12.00
2018-09-05T11:27:57.302Z,12.10
2018-09-05T11:30:26.616Z,11.63
2018-09-05T11:32:55.834Z,10.87
2018-09-05T11:35:25.064Z,11.33
2018-09-05T11:37:55.349Z,10.60
2018-09-05T11:40:25.490Z,11.80
2018-09-05T11:42:57.128Z,12.20
2018-09-05T11:45:28.530Z,11.03
2018-09-05T11:47:57.760Z,11.70
2018-09-05T11:50:27.034Z,12.00
2018-09-05T11:52:56.668Z,12.17
2018-09-05T11:55:27.185Z,11.63
2018-09-05T11:57:58.231Z,12.30
2018-09-05T12:00:27.264Z,12.00
2018-09-05T12:02:56.570Z,10.93
2018-09-05T12:05:26.344Z,10.80
2018-09-05T12:07:55.482Z,11.17
2018-09-05T12:10:24.480Z,11.47
2018-09-05T12:12:55.585Z,11.87
2018-09-05T12:15:25.148Z,11.27
2018-09-05T12:17:54.137Z,12.00
2018-09-05T12:20:23.416Z,11.27
2018-09-05T12:22:52.739Z,11.40
2018-09-05T12:25:21.841Z,11.13
2018-09-05T12:27:55.743Z,11.30
2018-09-05T12:30:27.182Z,11.80
2018-09-05T12:32:59.726Z,11.53
2018-09-05T12:35:30.879Z,11.30
2018-09-05T12:38:08.686Z,11.33
2018-09-05T12:40:39.791Z,11.50
2018-09-05T12:43:12.537Z,11.93
2018-09-05T12:45:42.657Z,11.13
2018-09-05T12:48:13.696Z,11.27
2018-09-05T12:50:45.031Z,11.40
2018-09-05T12:53:13.897Z,10.93
2018-09-05T12:55:43.176Z,11.50
2018-09-05T12:58:13.274Z,11.57
2018-09-05T13:00:48.838Z,10.40
2018-09-05T13:03:18.504Z,9.97
2018-09-05T13:05:47.896Z,10.53
2018-09-05T13:08:16.769Z,10.20
2018-09-05T13:10:45.989Z,11.40
2018-09-05T13:13:16.056Z,10.47
2018-09-05T13:15:45.477Z,11.30
2018-09-05T13:18:14.417Z,10.80
2018-09-05T13:20:44.384Z,10.40
2018-09-05T13:23:14.084Z,10.90
2018-09-05T13:25:43.121Z,11.03
2018-09-05T13:28:11.912Z,10.83
2018-09-05T13:30:40.518Z,11.50
2018-09-05T13:33:10.462Z,10.63
2018-09-05T13:35:39.320Z,10.70
2018-09-05T13:38:08.275Z,10.77
2018-09-05T13:40:37.132Z,10.63
2018-09-05T13:43:05.728Z,9.87
2018-09-05T13:45:34.532Z,10.63
2018-09-05T13:48:03.641Z,10.77
2018-09-05T13:50:32.577Z,11.17
2018-09-05T13:53:01.231Z,10.90
2018-09-05T13:55:29.861Z,11.40
2018-09-05T13:57:58.644Z,12.07
2018-09-05T14:00:27.403Z,11.70
2018-09-05T14:02:56.152Z,12.53
2018-09-05T14:05:24.885Z,11.30
2018-09-05T14:07:53.474Z,11.67
2018-09-05T14:10:22.106Z,12.30
2018-09-05T14:12:51.134Z,11.80
2018-09-05T14:15:19.879Z,12.00
2018-09-05T14:17:48.651Z,11.23
2018-09-05T14:20:17.284Z,10.90
2018-09-05T14:22:45.917Z,11.03
2018-09-05T14:25:14.471Z,10.83
2018-09-05T14:27:43.046Z,10.73
2018-09-05T14:30:11.612Z,10.70
2018-09-05T14:32:40.219Z,10.93
2018-09-05T14:35:08.861Z,11.03
2018-09-05T14:37:37.569Z,10.83
2018-09-05T14:40:06.234Z,10.90
2018-09-05T14:42:34.960Z,10.20
2018-09-05T14:45:03.785Z,9.97
2018-09-05T14:47:32.432Z,10.73
2018-09-05T14:50:00.942Z,10.73
2018-09-05T14:52:29.546Z,10.77
2018-09-05T14:54:58.193Z,11.40
2018-09-05T14:57:26.779Z,11.03
2018-09-05T14:59:55.427Z,10.63
2018-09-05T15:02:23.999Z,10.63
2018-09-05T15:04:52.642Z,10.33
2018-09-05T15:07:21.597Z,10.07
2018-09-05T15:09:50.212Z,9.87
2018-09-05T15:12:19.331Z,10.77
2018-09-05T15:14:48.006Z,11.03
2018-09-05T15:17:16.668Z,11.23
2018-09-05T15:19:45.393Z,11.63
2018-09-05T15:22:14.695Z,10.67
2018-09-05T15:24:43.769Z,10.90
2018-09-05T15:27:15.306Z,11.40
2018-09-05T15:29:45.054Z,11.20
2018-09-05T15:32:20.691Z,10.13
2018-09-05T15:34:52.838Z,10.83
2018-09-05T15:37:22.007Z,11.20
2018-09-05T15:39:50.648Z,10.60
2018-09-05T15:42:19.171Z,10.67
2018-09-05T15:44:47.809Z,10.17
2018-09-05T15:47:17.460Z,10.27
2018-09-05T15:49:46.281Z,9.83
2018-09-05T15:52:15.222Z,10.20
2018-09-05T15:54:44.374Z,10.07
2018-09-05T15:57:13.279Z,10.03
2018-09-05T16:02:25.826Z,10.33
2018-09-05T16:04:54.531Z,10.33
2018-09-05T16:07:23.217Z,10.40
2018-09-05T16:09:51.800Z,10.03
2018-09-05T16:12:20.555Z,11.73
2018-09-05T16:14:49.143Z,12.07
2018-09-05T16:17:17.763Z,11.27
2018-09-05T16:19:46.441Z,12.07
2018-09-05T16:22:15.186Z,11.60
2018-09-05T16:24:43.765Z,12.27
2018-09-05T16:27:12.296Z,11.97
2018-09-05T16:29:40.866Z,12.43
2018-09-05T16:32:09.360Z,12.30
2018-09-05T16:34:38.019Z,12.23
2018-09-05T16:37:06.581Z,12.50
2018-09-05T16:39:35.108Z,12.10
2018-09-05T16:42:03.613Z,11.90
2018-09-05T16:44:32.161Z,11.90
2018-09-05T16:47:00.756Z,12.13
2018-09-05T16:49:29.315Z,12.40
2018-09-05T16:51:57.833Z,11.97
2018-09-05T16:54:30.680Z,12.33
2018-09-05T16:56:59.407Z,12.77
2018-09-05T16:59:27.880Z,12.33
2018-09-05T17:01:57.319Z,12.27
2018-09-05T17:04:26.051Z,11.00
2018-09-05T17:06:54.540Z,11.57
2018-09-05T17:09:23.179Z,11.87
2018-09-05T17:11:51.695Z,11.30
2018-09-05T17:14:20.261Z,10.37
2018-09-05T17:16:48.799Z,10.20
2018-09-05T17:19:17.341Z,9.70
2018-09-05T17:21:45.863Z,9.67
2018-09-05T17:24:15.288Z,10.57
2018-09-05T17:26:43.803Z,11.97
2018-09-05T17:29:13.034Z,12.60
2018-09-05T17:31:41.687Z,13.70
2018-09-05T17:34:11.140Z,14.50
2018-09-05T17:36:39.892Z,13.77
2018-09-05T17:39:10.553Z,13.87
2018-09-05T17:41:40.862Z,12.87
2018-09-05T17:44:10.965Z,13.23
2018-09-05T17:46:40.835Z,12.97
2018-09-05T17:49:13.843Z,12.33
2018-09-05T17:51:42.851Z,10.67
2018-09-05T17:54:11.350Z,11.07
2018-09-05T17:56:41.163Z,11.30
2018-09-05T17:59:09.931Z,11.97
2018-09-05T18:01:38.614Z,11.23
2018-09-05T18:04:07.103Z,11.90
2018-09-05T18:06:35.687Z,11.80
2018-09-05T18:09:05.740Z,12.83
2018-09-05T18:11:34.264Z,12.77
2018-09-05T18:14:02.820Z,13.57
2018-09-05T18:16:31.544Z,12.77
2018-09-05T18:19:00.548Z,12.43
2018-09-05T18:21:29.329Z,12.87
2018-09-05T18:23:57.980Z,11.73
2018-09-05T18:26:26.629Z,12.13
2018-09-05T18:28:55.997Z,12.80
2018-09-05T18:31:24.496Z,12.47
2018-09-05T18:33:53.303Z,12.80
2018-09-05T18:36:21.772Z,12.27
2018-09-05T18:38:50.263Z,12.50
2018-09-05T18:41:19.052Z,12.07
2018-09-05T18:43:47.796Z,11.97
2018-09-05T18:46:16.437Z,12.67
2018-09-05T18:48:45.365Z,12.50
2018-09-05T18:51:13.897Z,12.87
2018-09-05T18:53:42.446Z,12.30
2018-09-05T18:56:11.070Z,12.70
2018-09-05T18:58:39.785Z,12.07
2018-09-05T19:01:08.351Z,12.33
2018-09-05T19:03:37.051Z,12.57
2018-09-05T19:06:05.887Z,12.87
2018-09-05T19:08:34.444Z,12.00
2018-09-05T19:11:03.809Z,12.47
2018-09-05T19:13:32.437Z,12.47
2018-09-05T19:16:01.075Z,12.63
2018-09-05T19:18:29.781Z,12.30
2018-09-05T19:20:58.336Z,12.57
2018-09-05T19:23:27.024Z,12.10
2018-09-05T19:25:55.647Z,12.03
2018-09-05T19:28:24.228Z,12.77
2018-09-05T19:30:52.827Z,12.17
2018-09-05T19:33:21.435Z,13.10
2018-09-05T19:35:50.424Z,12.20
2018-09-05T19:38:19.248Z,12.63
2018-09-05T19:40:48.128Z,12.33
2018-09-05T19:43:16.765Z,11.47
2018-09-05T19:45:45.328Z,12.67
2018-09-05T19:48:13.927Z,12.03
2018-09-05T19:50:42.463Z,12.27
2018-09-05T19:53:11.284Z,12.73
2018-09-05T19:55:39.854Z,13.17
2018-09-05T19:58:08.432Z,12.87
2018-09-05T20:00:37.534Z,11.90
2018-09-05T20:03:06.105Z,11.33
2018-09-05T20:05:34.717Z,12.53
2018-09-05T20:08:03.326Z,12.50
2018-09-05T20:10:31.899Z,14.77
2018-09-05T20:13:00.468Z,12.30
2018-09-05T20:15:29.096Z,12.93
2018-09-05T20:17:57.620Z,12.73
2018-09-05T20:20:26.171Z,12.77
2018-09-05T20:22:56.175Z,14.40
2018-09-05T20:25:24.873Z,13.67
2018-09-05T20:27:53.593Z,14.03
2018-09-05T20:30:22.173Z,14.93
2018-09-05T20:32:50.735Z,16.03
2018-09-05T20:35:19.240Z,15.40
2018-09-05T20:37:47.820Z,13.50
2018-09-05T20:40:16.318Z,15.10
2018-09-05T20:42:44.863Z,15.90
2018-09-05T20:45:13.775Z,15.63
2018-09-05T20:47:42.471Z,17.00
2018-09-05T20:50:11.013Z,15.17
2018-09-05T20:52:39.584Z,16.03
2018-09-05T20:55:08.347Z,16.07
2018-09-05T20:57:36.835Z,15.97
2018-09-05T21:00:06.081Z,16.30
2018-09-05T21:02:34.716Z,16.47
2018-09-05T21:05:03.292Z,16.00
2018-09-05T21:07:31.880Z,15.33
2018-09-05T21:10:00.392Z,15.27
2018-09-05T21:12:29.116Z,15.63
2018-09-05T21:14:57.669Z,15.90
2018-09-05T21:17:26.282Z,16.70
2018-09-05T21:19:54.809Z,16.53
2018-09-05T21:22:24.172Z,15.00
2018-09-05T21:24:52.634Z,15.80
2018-09-05T21:27:22.018Z,17.53
2018-09-05T21:29:50.971Z,16.67
2018-09-05T21:32:19.465Z,16.17
2018-09-05T21:34:47.947Z,16.13
2018-09-05T21:37:16.444Z,17.00
2018-09-05T21:39:45.068Z,18.33
2018-09-05T21:42:13.723Z,18.13
2018-09-05T21:44:42.207Z,17.80
2018-09-05T21:47:10.810Z,18.17
2018-09-05T21:49:39.538Z,19.23
2018-09-05T21:52:08.122Z,17.47
2018-09-05T21:54:36.932Z,17.37
2018-09-05T21:57:05.456Z,17.57
2018-09-05T21:59:34.019Z,17.53
2018-09-05T22:02:02.483Z,18.00
2018-09-05T22:04:31.032Z,17.43
2018-09-05T22:06:59.675Z,18.60
2018-09-05T22:09:28.148Z,18.30
2018-09-05T22:11:56.735Z,17.10
2018-09-05T22:14:25.272Z,17.60
2018-09-05T22:16:53.817Z,17.20
2018-09-05T22:19:22.305Z,17.60
2018-09-05T22:21:51.137Z,18.23
2018-09-05T22:24:19.859Z,16.40
2018-09-05T22:26:48.308Z,17.97
2018-09-05T22:29:17.024Z,18.63
2018-09-05T22:31:45.622Z,19.63
2018-09-05T22:34:14.824Z,20.33
2018-09-05T22:36:43.442Z,20.43
2018-09-05T22:39:11.962Z,18.77
2018-09-05T22:41:40.626Z,20.50
2018-09-05T22:44:20.322Z,21.40
2018-09-05T22:47:00.026Z,20.90
2018-09-05T22:51:52.721Z,20.60
2018-09-05T22:55:34.891Z,19.80
2018-09-05T22:58:21.152Z,18.77
2018-09-05T23:03:04.144Z,18.53
2018-09-05T23:08:47.346Z,18.87
2018-09-05T23:11:27.398Z,17.73
2018-09-05T23:15:10.863Z,19.13
2018-09-05T23:19:53.288Z,19.30
2018-09-05T23:22:22.004Z,16.87
2018-09-05T23:24:50.450Z,19.10
2018-09-05T23:27:19.024Z,17.50
2018-09-05T23:29:48.107Z,18.17
2018-09-05T23:32:16.554Z,17.20
2018-09-05T23:34:45.023Z,16.67
2018-09-05T23:37:13.475Z,16.60
2018-09-05T23:39:41.937Z,17.70
2018-09-05T23:42:10.414Z,17.70
2018-09-05T23:44:38.887Z,19.27
2018-09-05T23:47:07.347Z,16.17
2018-09-05T23:49:35.793Z,16.20
2018-09-05T23:52:04.327Z,15.43
2018-09-05T23:54:32.804Z,19.53
2018-09-05T23:57:01.288Z,17.63
2018-09-05T23:59:29.757Z,19.03
